sensor_id;sensor_type;location;lat;lon;timestamp;temperature;humidity
33811;DHT22;20119;48.334;16.206;2023-08-12T00:00:45;14.30;99.90
33811;DHT22;20119;48.334;16.206;2023-08-12T00:03:14;14.30;99.90
33811;DHT22;20119;48.334;16.206;2023-08-12T00:05:46;14.20;99.90
33811;DHT22;20119;48.334;16.206;2023-08-12T00:08:15;14.10;99.90
33811;DHT22;20119;48.334;16.206;2023-08-12T00:10:44;14.00;99.90
33811;DHT22;20119;48.334;16.206;2023-08-12T00:13:14;14.00;99.90
33811;DHT22;20119;48.334;16.206;2023-08-12T00:15:44;14.00;99.90
33811;DHT22;20119;48.334;16.206;2023-08-12T00:18:12;13.90;99.90
33811;DHT22;20119;48.334;16.206;2023-08-12T00:20:42;13.80;99.90
33811;DHT22;20119;48.334;16.206;2023-08-12T00:23:11;13.70;99.90
33811;DHT22;20119;48.334;16.206;2023-08-12T00:25:39;13.70;99.90
33811;DHT22;20119;48.334;16.206;2023-08-12T00:28:08;13.80;99.90
33811;DHT22;20119;48.334;16.206;2023-08-12T00:30:39;13.70;99.90
33811;DHT22;20119;48.334;16.206;2023-08-12T00:33:08;13.70;99.90
33811;DHT22;20119;48.334;16.206;2023-08-12T00:35:36;13.70;99.90
33811;DHT22;20119;48.334;16.206;2023-08-12T00:38:05;13.80;99.90
33811;DHT22;20119;48.334;16.206;2023-08-12T00:40:33;13.70;99.90
33811;DHT22;20119;48.334;16.206;2023-08-12T00:43:01;13.50;99.90
33811;DHT22;20119;48.334;16.206;2023-08-12T00:45:30;13.40;99.90
33811;DHT22;20119;48.334;16.206;2023-08-12T00:48:00;13.40;99.90
33811;DHT22;20119;48.334;16.206;2023-08-12T00:50:30;13.40;99.90
33811;DHT22;20119;48.334;16.206;2023-08-12T00:53:00;13.40;99.90
33811;DHT22;20119;48.334;16.206;2023-08-12T00:55:29;13.40;99.90
33811;DHT22;20119;48.334;16.206;2023-08-12T00:57:57;13.40;99.90
33811;DHT22;20119;48.334;16.206;2023-08-12T01:00:26;13.40;99.90
33811;DHT22;20119;48.334;16.206;2023-08-12T01:02:56;13.40;99.90
33811;DHT22;20119;48.334;16.206;2023-08-12T01:05:26;13.40;99.90
33811;DHT22;20119;48.334;16.206;2023-08-12T01:07:54;13.30;99.90
33811;DHT22;20119;48.334;16.206;2023-08-12T01:10:28;13.20;99.90
33811;DHT22;20119;48.334;16.206;2023-08-12T01:13:07;13.20;99.90
33811;DHT22;20119;48.334;16.206;2023-08-12T01:15:39;13.10;99.90
33811;DHT22;20119;48.334;16.206;2023-08-12T01:18:12;13.10;99.90
33811;DHT22;20119;48.334;16.206;2023-08-12T01:20:44;13.10;99.90
33811;DHT22;20119;48.334;16.206;2023-08-12T01:23:17;13.20;99.90
33811;DHT22;20119;48.334;16.206;2023-08-12T01:25:47;13.20;99.90
33811;DHT22;20119;48.334;16.206;2023-08-12T01:28:16;13.20;99.90
33811;DHT22;20119;48.334;16.206;2023-08-12T01:30:50;13.20;99.90
33811;DHT22;20119;48.334;16.206;2023-08-12T01:54:06;13.20;99.90
33811;DHT22;20119;48.334;16.206;2023-08-12T01:59:14;13.10;99.90
33811;DHT22;20119;48.334;16.206;2023-08-12T02:01:43;13.30;99.90
33811;DHT22;20119;48.334;16.206;2023-08-12T02:04:17;13.20;99.90
33811;DHT22;20119;48.334;16.206;2023-08-12T02:06:50;13.10;99.90
33811;DHT22;20119;48.334;16.206;2023-08-12T02:09:25;13.00;99.90
33811;DHT22;20119;48.334;16.206;2023-08-12T02:11:56;12.90;99.90
33811;DHT22;20119;48.334;16.206;2023-08-12T02:14:25;12.90;99.90
33811;DHT22;20119;48.334;16.206;2023-08-12T02:16:57;12.80;99.90
33811;DHT22;20119;48.334;16.206;2023-08-12T02:19:27;12.80;99.90
33811;DHT22;20119;48.334;16.206;2023-08-12T02:21:57;12.90;99.90
33811;DHT22;20119;48.334;16.206;2023-08-12T02:34:53;12.60;99.90
33811;DHT22;20119;48.334;16.206;2023-08-12T02:37:26;12.50;99.90
33811;DHT22;20119;48.334;16.206;2023-08-12T02:39:56;12.40;99.90
33811;DHT22;20119;48.334;16.206;2023-08-12T02:42:25;12.50;99.90
33811;DHT22;20119;48.334;16.206;2023-08-12T02:44:54;12.50;99.90
33811;DHT22;20119;48.334;16.206;2023-08-12T02:47:25;12.40;99.90
33811;DHT22;20119;48.334;16.206;2023-08-12T02:49:56;12.40;99.90
33811;DHT22;20119;48.334;16.206;2023-08-12T02:52:26;12.30;99.90
33811;DHT22;20119;48.334;16.206;2023-08-12T02:54:55;12.30;99.90
33811;DHT22;20119;48.334;16.206;2023-08-12T02:57:24;12.30;99.90
33811;DHT22;20119;48.334;16.206;2023-08-12T02:59:52;12.40;99.90
33811;DHT22;20119;48.334;16.206;2023-08-12T03:02:22;12.30;99.90
33811;DHT22;20119;48.334;16.206;2023-08-12T03:30:59;12.30;99.90
33811;DHT22;20119;48.334;16.206;2023-08-12T03:41:14;12.20;99.90
33811;DHT22;20119;48.334;16.206;2023-08-12T03:43:46;12.10;99.90
33811;DHT22;20119;48.334;16.206;2023-08-12T03:46:22;12.10;99.90
33811;DHT22;20119;48.334;16.206;2023-08-12T03:48:55;12.00;99.90
33811;DHT22;20119;48.334;16.206;2023-08-12T03:51:26;12.00;99.90
33811;DHT22;20119;48.334;16.206;2023-08-12T03:53:56;11.90;99.90
33811;DHT22;20119;48.334;16.206;2023-08-12T03:56:31;11.90;99.90
33811;DHT22;20119;48.334;16.206;2023-08-12T04:12:07;12.00;99.90
33811;DHT22;20119;48.334;16.206;2023-08-12T04:14:41;12.00;99.90
33811;DHT22;20119;48.334;16.206;2023-08-12T04:17:16;12.00;99.90
33811;DHT22;20119;48.334;16.206;2023-08-12T04:19:46;12.20;99.90
33811;DHT22;20119;48.334;16.206;2023-08-12T04:22:16;12.30;99.90
33811;DHT22;20119;48.334;16.206;2023-08-12T04:24:46;12.40;99.90
33811;DHT22;20119;48.334;16.206;2023-08-12T04:27:18;12.50;99.90
33811;DHT22;20119;48.334;16.206;2023-08-12T04:29:50;12.70;99.90
33811;DHT22;20119;48.334;16.206;2023-08-12T04:32:18;12.80;99.90
33811;DHT22;20119;48.334;16.206;2023-08-12T04:34:47;13.00;99.90
33811;DHT22;20119;48.334;16.206;2023-08-12T04:37:16;13.20;99.90
33811;DHT22;20119;48.334;16.206;2023-08-12T04:39:47;13.40;99.90
33811;DHT22;20119;48.334;16.206;2023-08-12T04:42:19;13.60;99.90
33811;DHT22;20119;48.334;16.206;2023-08-12T04:44:48;13.80;99.90
33811;DHT22;20119;48.334;16.206;2023-08-12T04:47:20;14.00;99.90
33811;DHT22;20119;48.334;16.206;2023-08-12T04:49:53;14.10;99.90
33811;DHT22;20119;48.334;16.206;2023-08-12T04:52:23;14.30;99.90
33811;DHT22;20119;48.334;16.206;2023-08-12T05:28:39;19.60;99.90
33811;DHT22;20119;48.334;16.206;2023-08-12T05:31:07;20.20;99.90
33811;DHT22;20119;48.334;16.206;2023-08-12T06:01:06;21.00;99.90
33811;DHT22;20119;48.334;16.206;2023-08-12T06:09:00;20.10;99.90
33811;DHT22;20119;48.334;16.206;2023-08-12T06:11:31;20.40;99.90
33811;DHT22;20119;48.334;16.206;2023-08-12T07:09:19;24.00;99.90
33811;DHT22;20119;48.334;16.206;2023-08-12T07:11:46;25.40;99.90
33811;DHT22;20119;48.334;16.206;2023-08-12T07:14:14;25.70;99.90
33811;DHT22;20119;48.334;16.206;2023-08-12T07:16:41;25.70;99.90
33811;DHT22;20119;48.334;16.206;2023-08-12T07:19:08;25.80;99.90
33811;DHT22;20119;48.334;16.206;2023-08-12T07:21:35;26.60;99.90
33811;DHT22;20119;48.334;16.206;2023-08-12T07:24:03;27.20;99.90
33811;DHT22;20119;48.334;16.206;2023-08-12T07:26:33;27.20;99.90
33811;DHT22;20119;48.334;16.206;2023-08-12T07:29:01;25.60;99.90
33811;DHT22;20119;48.334;16.206;2023-08-12T07:31:29;25.00;99.90
33811;DHT22;20119;48.334;16.206;2023-08-12T07:33:56;25.60;99.90
33811;DHT22;20119;48.334;16.206;2023-08-12T07:36:23;26.30;99.90
33811;DHT22;20119;48.334;16.206;2023-08-12T07:38:50;26.70;99.90
33811;DHT22;20119;48.334;16.206;2023-08-12T07:41:17;27.50;99.90
33811;DHT22;20119;48.334;16.206;2023-08-12T07:43:45;27.20;99.90
33811;DHT22;20119;48.334;16.206;2023-08-12T07:46:13;26.00;99.90
33811;DHT22;20119;48.334;16.206;2023-08-12T07:48:40;25.60;99.90
33811;DHT22;20119;48.334;16.206;2023-08-12T07:51:07;25.10;99.90
33811;DHT22;20119;48.334;16.206;2023-08-12T07:53:34;26.40;99.90
33811;DHT22;20119;48.334;16.206;2023-08-12T07:56:01;27.70;99.90
33811;DHT22;20119;48.334;16.206;2023-08-12T07:58:29;26.60;99.90
33811;DHT22;20119;48.334;16.206;2023-08-12T08:00:58;25.90;99.90
33811;DHT22;20119;48.334;16.206;2023-08-12T08:03:25;25.50;99.90
33811;DHT22;20119;48.334;16.206;2023-08-12T08:05:52;27.00;99.90
33811;DHT22;20119;48.334;16.206;2023-08-12T08:08:19;26.30;99.90
33811;DHT22;20119;48.334;16.206;2023-08-12T08:10:46;25.40;99.90
33811;DHT22;20119;48.334;16.206;2023-08-12T08:13:13;26.60;99.90
33811;DHT22;20119;48.334;16.206;2023-08-12T08:15:40;27.60;99.90
33811;DHT22;20119;48.334;16.206;2023-08-12T08:18:09;29.10;99.90
33811;DHT22;20119;48.334;16.206;2023-08-12T08:20:35;27.60;99.90
33811;DHT22;20119;48.334;16.206;2023-08-12T08:23:03;27.60;99.90
33811;DHT22;20119;48.334;16.206;2023-08-12T08:25:30;28.20;99.90
33811;DHT22;20119;48.334;16.206;2023-08-12T08:27:57;29.10;99.90
33811;DHT22;20119;48.334;16.206;2023-08-12T08:30:24;28.60;99.90
33811;DHT22;20119;48.334;16.206;2023-08-12T08:32:51;28.80;99.90
33811;DHT22;20119;48.334;16.206;2023-08-12T08:35:20;30.60;99.90
33811;DHT22;20119;48.334;16.206;2023-08-12T08:37:47;31.00;99.90
33811;DHT22;20119;48.334;16.206;2023-08-12T08:40:14;31.50;99.90
33811;DHT22;20119;48.334;16.206;2023-08-12T08:42:43;31.20;99.90
33811;DHT22;20119;48.334;16.206;2023-08-12T08:45:13;31.40;99.90
33811;DHT22;20119;48.334;16.206;2023-08-12T08:47:41;31.30;99.90
33811;DHT22;20119;48.334;16.206;2023-08-12T08:50:09;30.90;99.90
33811;DHT22;20119;48.334;16.206;2023-08-12T08:52:39;30.70;99.90
33811;DHT22;20119;48.334;16.206;2023-08-12T08:55:08;30.40;99.90
33811;DHT22;20119;48.334;16.206;2023-08-12T08:57:35;30.50;99.90
33811;DHT22;20119;48.334;16.206;2023-08-12T09:00:05;31.10;99.90
33811;DHT22;20119;48.334;16.206;2023-08-12T09:02:33;30.80;99.90
33811;DHT22;20119;48.334;16.206;2023-08-12T09:05:01;30.90;99.90
33811;DHT22;20119;48.334;16.206;2023-08-12T09:07:29;31.10;99.90
33811;DHT22;20119;48.334;16.206;2023-08-12T09:09:58;30.30;99.90
33811;DHT22;20119;48.334;16.206;2023-08-12T09:12:27;30.70;99.90
33811;DHT22;20119;48.334;16.206;2023-08-12T09:14:54;31.00;99.90
33811;DHT22;20119;48.334;16.206;2023-08-12T09:17:21;30.60;99.90
33811;DHT22;20119;48.334;16.206;2023-08-12T09:19:49;31.00;99.90
33811;DHT22;20119;48.334;16.206;2023-08-12T09:22:17;31.50;99.90
33811;DHT22;20119;48.334;16.206;2023-08-12T09:24:44;31.70;99.90
33811;DHT22;20119;48.334;16.206;2023-08-12T09:27:17;31.20;99.90
33811;DHT22;20119;48.334;16.206;2023-08-12T09:29:44;31.00;99.90
33811;DHT22;20119;48.334;16.206;2023-08-12T09:32:12;30.90;99.90
33811;DHT22;20119;48.334;16.206;2023-08-12T09:34:46;31.20;99.80
33811;DHT22;20119;48.334;16.206;2023-08-12T09:37:14;30.80;99.90
33811;DHT22;20119;48.334;16.206;2023-08-12T09:39:41;30.10;99.90
33811;DHT22;20119;48.334;16.206;2023-08-12T09:42:09;29.90;99.90
33811;DHT22;20119;48.334;16.206;2023-08-12T09:44:38;29.60;99.90
33811;DHT22;20119;48.334;16.206;2023-08-12T09:47:06;29.80;99.90
33811;DHT22;20119;48.334;16.206;2023-08-12T09:49:34;29.80;99.90
33811;DHT22;20119;48.334;16.206;2023-08-12T09:52:02;29.90;99.90
33811;DHT22;20119;48.334;16.206;2023-08-12T09:54:31;29.70;99.90
33811;DHT22;20119;48.334;16.206;2023-08-12T09:57:00;29.30;99.90
33811;DHT22;20119;48.334;16.206;2023-08-12T09:59:30;28.90;99.90
33811;DHT22;20119;48.334;16.206;2023-08-12T10:01:59;28.60;99.90
33811;DHT22;20119;48.334;16.206;2023-08-12T10:04:33;28.50;99.90
33811;DHT22;20119;48.334;16.206;2023-08-12T10:07:02;28.40;99.90
33811;DHT22;20119;48.334;16.206;2023-08-12T10:09:30;28.50;99.90
33811;DHT22;20119;48.334;16.206;2023-08-12T10:11:58;28.50;99.90
33811;DHT22;20119;48.334;16.206;2023-08-12T10:14:25;28.30;99.90
33811;DHT22;20119;48.334;16.206;2023-08-12T10:16:54;28.60;99.90
33811;DHT22;20119;48.334;16.206;2023-08-12T10:19:23;28.40;99.90
33811;DHT22;20119;48.334;16.206;2023-08-12T10:21:55;28.50;99.90
33811;DHT22;20119;48.334;16.206;2023-08-12T10:24:23;28.30;99.90
33811;DHT22;20119;48.334;16.206;2023-08-12T10:26:51;28.40;99.90
33811;DHT22;20119;48.334;16.206;2023-08-12T10:29:19;28.50;99.90
33811;DHT22;20119;48.334;16.206;2023-08-12T10:31:46;28.50;99.90
33811;DHT22;20119;48.334;16.206;2023-08-12T10:34:20;28.40;99.90
33811;DHT22;20119;48.334;16.206;2023-08-12T10:36:54;28.30;99.90
33811;DHT22;20119;48.334;16.206;2023-08-12T10:39:24;28.30;99.90
33811;DHT22;20119;48.334;16.206;2023-08-12T10:41:54;28.40;99.90
33811;DHT22;20119;48.334;16.206;2023-08-12T10:44:25;28.30;99.90
33811;DHT22;20119;48.334;16.206;2023-08-12T10:46:53;28.30;99.90
33811;DHT22;20119;48.334;16.206;2023-08-12T10:49:22;28.20;99.90
33811;DHT22;20119;48.334;16.206;2023-08-12T10:51:53;28.10;99.90
33811;DHT22;20119;48.334;16.206;2023-08-12T10:54:22;28.20;99.90
33811;DHT22;20119;48.334;16.206;2023-08-12T10:57:08;28.10;99.90
33811;DHT22;20119;48.334;16.206;2023-08-12T10:59:49;27.90;99.90
33811;DHT22;20119;48.334;16.206;2023-08-12T11:02:17;28.20;99.90
33811;DHT22;20119;48.334;16.206;2023-08-12T11:04:44;28.40;99.90
33811;DHT22;20119;48.334;16.206;2023-08-12T11:07:17;28.40;99.90
33811;DHT22;20119;48.334;16.206;2023-08-12T11:09:45;28.70;99.90
33811;DHT22;20119;48.334;16.206;2023-08-12T11:12:17;28.60;99.90
33811;DHT22;20119;48.334;16.206;2023-08-12T11:14:48;28.60;99.90
33811;DHT22;20119;48.334;16.206;2023-08-12T11:17:16;28.50;99.90
33811;DHT22;20119;48.334;16.206;2023-08-12T11:19:43;28.70;99.90
33811;DHT22;20119;48.334;16.206;2023-08-12T11:22:10;28.70;99.90
33811;DHT22;20119;48.334;16.206;2023-08-12T11:24:43;28.70;99.90
33811;DHT22;20119;48.334;16.206;2023-08-12T11:27:10;28.60;99.90
33811;DHT22;20119;48.334;16.206;2023-08-12T11:29:37;28.50;99.90
33811;DHT22;20119;48.334;16.206;2023-08-12T11:32:05;28.50;99.90
33811;DHT22;20119;48.334;16.206;2023-08-12T11:34:33;28.70;99.90
33811;DHT22;20119;48.334;16.206;2023-08-12T11:37:00;28.70;99.90
33811;DHT22;20119;48.334;16.206;2023-08-12T11:39:28;28.90;99.90
33811;DHT22;20119;48.334;16.206;2023-08-12T11:41:57;28.90;99.90
33811;DHT22;20119;48.334;16.206;2023-08-12T11:44:24;29.00;99.90
33811;DHT22;20119;48.334;16.206;2023-08-12T11:46:51;28.90;99.90
33811;DHT22;20119;48.334;16.206;2023-08-12T11:49:18;29.00;99.90
33811;DHT22;20119;48.334;16.206;2023-08-12T11:51:47;28.80;99.90
33811;DHT22;20119;48.334;16.206;2023-08-12T11:54:16;28.70;99.90
33811;DHT22;20119;48.334;16.206;2023-08-12T11:56:43;28.50;99.90
33811;DHT22;20119;48.334;16.206;2023-08-12T11:59:12;28.80;99.90
33811;DHT22;20119;48.334;16.206;2023-08-12T12:01:38;28.90;99.90
33811;DHT22;20119;48.334;16.206;2023-08-12T12:04:05;29.10;99.90
33811;DHT22;20119;48.334;16.206;2023-08-12T12:06:35;29.00;99.90
33811;DHT22;20119;48.334;16.206;2023-08-12T12:09:03;29.10;99.90
33811;DHT22;20119;48.334;16.206;2023-08-12T12:11:31;29.10;99.90
33811;DHT22;20119;48.334;16.206;2023-08-12T12:14:01;28.90;99.90
33811;DHT22;20119;48.334;16.206;2023-08-12T12:16:39;28.90;99.90
33811;DHT22;20119;48.334;16.206;2023-08-12T12:19:09;28.90;99.90
33811;DHT22;20119;48.334;16.206;2023-08-12T12:21:40;28.80;99.90
33811;DHT22;20119;48.334;16.206;2023-08-12T12:24:07;28.90;99.90
33811;DHT22;20119;48.334;16.206;2023-08-12T12:26:35;29.00;99.90
33811;DHT22;20119;48.334;16.206;2023-08-12T12:29:02;29.10;99.90
33811;DHT22;20119;48.334;16.206;2023-08-12T12:31:31;29.00;99.90
33811;DHT22;20119;48.334;16.206;2023-08-12T12:33:59;29.00;99.90
33811;DHT22;20119;48.334;16.206;2023-08-12T12:36:26;29.00;99.90
33811;DHT22;20119;48.334;16.206;2023-08-12T12:38:53;29.00;99.90
33811;DHT22;20119;48.334;16.206;2023-08-12T12:41:20;29.00;99.90
33811;DHT22;20119;48.334;16.206;2023-08-12T12:43:47;29.10;99.90
33811;DHT22;20119;48.334;16.206;2023-08-12T12:46:15;29.00;99.90
33811;DHT22;20119;48.334;16.206;2023-08-12T12:48:45;28.90;99.90
33811;DHT22;20119;48.334;16.206;2023-08-12T12:51:14;29.00;99.90
33811;DHT22;20119;48.334;16.206;2023-08-12T12:53:41;29.00;99.90
33811;DHT22;20119;48.334;16.206;2023-08-12T12:56:08;28.90;99.90
33811;DHT22;20119;48.334;16.206;2023-08-12T12:58:36;28.90;99.90
33811;DHT22;20119;48.334;16.206;2023-08-12T13:01:04;29.00;99.90
33811;DHT22;20119;48.334;16.206;2023-08-12T13:03:32;29.00;99.90
33811;DHT22;20119;48.334;16.206;2023-08-12T13:05:59;29.00;99.90
33811;DHT22;20119;48.334;16.206;2023-08-12T13:08:29;29.00;99.90
33811;DHT22;20119;48.334;16.206;2023-08-12T13:10:57;29.10;99.90
33811;DHT22;20119;48.334;16.206;2023-08-12T13:13:24;29.20;99.90
33811;DHT22;20119;48.334;16.206;2023-08-12T13:15:51;29.30;99.90
33811;DHT22;20119;48.334;16.206;2023-08-12T13:18:18;29.30;99.90
33811;DHT22;20119;48.334;16.206;2023-08-12T13:20:45;29.30;99.90
33811;DHT22;20119;48.334;16.206;2023-08-12T13:23:13;29.30;99.90
33811;DHT22;20119;48.334;16.206;2023-08-12T13:25:42;29.30;99.90
33811;DHT22;20119;48.334;16.206;2023-08-12T13:28:09;29.20;99.90
33811;DHT22;20119;48.334;16.206;2023-08-12T13:30:36;29.20;99.90
33811;DHT22;20119;48.334;16.206;2023-08-12T13:33:03;29.20;99.90
33811;DHT22;20119;48.334;16.206;2023-08-12T13:35:31;29.20;99.90
33811;DHT22;20119;48.334;16.206;2023-08-12T13:37:58;29.20;99.90
33811;DHT22;20119;48.334;16.206;2023-08-12T13:40:25;29.20;99.90
33811;DHT22;20119;48.334;16.206;2023-08-12T13:42:54;29.10;99.90
33811;DHT22;20119;48.334;16.206;2023-08-12T13:45:21;29.20;99.90
33811;DHT22;20119;48.334;16.206;2023-08-12T13:47:49;29.30;99.90
33811;DHT22;20119;48.334;16.206;2023-08-12T13:50:16;29.20;99.90
33811;DHT22;20119;48.334;16.206;2023-08-12T13:52:45;29.20;99.90
33811;DHT22;20119;48.334;16.206;2023-08-12T13:55:13;29.20;99.90
33811;DHT22;20119;48.334;16.206;2023-08-12T13:57:40;29.20;99.90
33811;DHT22;20119;48.334;16.206;2023-08-12T14:00:10;29.20;99.90
33811;DHT22;20119;48.334;16.206;2023-08-12T14:02:40;29.20;99.90
33811;DHT22;20119;48.334;16.206;2023-08-12T14:05:07;29.20;99.90
33811;DHT22;20119;48.334;16.206;2023-08-12T14:07:35;29.20;99.90
33811;DHT22;20119;48.334;16.206;2023-08-12T14:10:03;29.10;99.90
33811;DHT22;20119;48.334;16.206;2023-08-12T14:12:30;29.20;99.90
33811;DHT22;20119;48.334;16.206;2023-08-12T14:14:58;29.10;99.90
33811;DHT22;20119;48.334;16.206;2023-08-12T14:17:26;29.10;99.90
33811;DHT22;20119;48.334;16.206;2023-08-12T14:19:53;29.20;99.80
33811;DHT22;20119;48.334;16.206;2023-08-12T14:22:20;29.00;99.80
33811;DHT22;20119;48.334;16.206;2023-08-12T14:24:48;29.00;99.90
33811;DHT22;20119;48.334;16.206;2023-08-12T14:27:15;29.10;99.90
33811;DHT22;20119;48.334;16.206;2023-08-12T14:29:43;28.90;99.90
33811;DHT22;20119;48.334;16.206;2023-08-12T14:32:10;28.90;99.90
33811;DHT22;20119;48.334;16.206;2023-08-12T14:34:39;28.90;99.90
33811;DHT22;20119;48.334;16.206;2023-08-12T14:37:05;28.80;99.90
33811;DHT22;20119;48.334;16.206;2023-08-12T14:39:33;28.80;99.90
33811;DHT22;20119;48.334;16.206;2023-08-12T14:42:00;29.00;99.90
33811;DHT22;20119;48.334;16.206;2023-08-12T14:44:29;29.00;99.90
33811;DHT22;20119;48.334;16.206;2023-08-12T14:46:58;28.90;99.90
33811;DHT22;20119;48.334;16.206;2023-08-12T14:49:25;28.90;99.90
33811;DHT22;20119;48.334;16.206;2023-08-12T14:51:54;28.90;99.90
33811;DHT22;20119;48.334;16.206;2023-08-12T14:54:21;28.90;99.90
33811;DHT22;20119;48.334;16.206;2023-08-12T14:56:48;28.90;99.90
33811;DHT22;20119;48.334;16.206;2023-08-12T14:59:16;28.90;99.90
33811;DHT22;20119;48.334;16.206;2023-08-12T15:01:43;28.80;99.90
33811;DHT22;20119;48.334;16.206;2023-08-12T15:04:10;28.70;99.90
33811;DHT22;20119;48.334;16.206;2023-08-12T15:06:37;28.60;99.90
33811;DHT22;20119;48.334;16.206;2023-08-12T15:09:05;28.50;99.90
33811;DHT22;20119;48.334;16.206;2023-08-12T15:11:32;28.50;99.90
33811;DHT22;20119;48.334;16.206;2023-08-12T15:13:59;28.60;99.90
33811;DHT22;20119;48.334;16.206;2023-08-12T15:16:26;28.60;99.90
33811;DHT22;20119;48.334;16.206;2023-08-12T15:18:53;28.60;99.90
33811;DHT22;20119;48.334;16.206;2023-08-12T15:21:21;28.40;99.90
33811;DHT22;20119;48.334;16.206;2023-08-12T15:23:48;28.30;99.90
33811;DHT22;20119;48.334;16.206;2023-08-12T15:26:17;28.30;99.90
33811;DHT22;20119;48.334;16.206;2023-08-12T15:28:44;28.30;99.90
33811;DHT22;20119;48.334;16.206;2023-08-12T15:31:12;28.20;99.90
33811;DHT22;20119;48.334;16.206;2023-08-12T15:33:39;28.30;99.90
33811;DHT22;20119;48.334;16.206;2023-08-12T15:36:06;28.40;99.90
33811;DHT22;20119;48.334;16.206;2023-08-12T15:38:33;28.10;99.90
33811;DHT22;20119;48.334;16.206;2023-08-12T15:41:00;28.20;99.90
33811;DHT22;20119;48.334;16.206;2023-08-12T15:43:29;28.20;99.90
33811;DHT22;20119;48.334;16.206;2023-08-12T15:45:56;28.10;99.90
33811;DHT22;20119;48.334;16.206;2023-08-12T15:48:23;28.20;99.90
33811;DHT22;20119;48.334;16.206;2023-08-12T15:50:50;28.10;99.90
33811;DHT22;20119;48.334;16.206;2023-08-12T15:53:18;28.10;99.90
33811;DHT22;20119;48.334;16.206;2023-08-12T15:58:48;28.00;99.90
33811;DHT22;20119;48.334;16.206;2023-08-12T16:01:17;27.90;99.90
33811;DHT22;20119;48.334;16.206;2023-08-12T16:03:45;27.90;99.90
33811;DHT22;20119;48.334;16.206;2023-08-12T16:06:11;27.80;99.90
33811;DHT22;20119;48.334;16.206;2023-08-12T16:08:38;27.80;99.90
33811;DHT22;20119;48.334;16.206;2023-08-12T16:11:05;27.70;99.90
33811;DHT22;20119;48.334;16.206;2023-08-12T16:13:32;27.60;99.90
33811;DHT22;20119;48.334;16.206;2023-08-12T16:16:01;27.50;99.90
33811;DHT22;20119;48.334;16.206;2023-08-12T16:18:28;27.30;99.90
33811;DHT22;20119;48.334;16.206;2023-08-12T16:20:56;27.30;99.90
33811;DHT22;20119;48.334;16.206;2023-08-12T16:23:23;27.30;99.90
33811;DHT22;20119;48.334;16.206;2023-08-12T16:25:50;27.30;99.90
33811;DHT22;20119;48.334;16.206;2023-08-12T16:28:18;27.40;99.90
33811;DHT22;20119;48.334;16.206;2023-08-12T16:38:42;27.10;99.90
33811;DHT22;20119;48.334;16.206;2023-08-12T16:43:54;27.10;99.90
33811;DHT22;20119;48.334;16.206;2023-08-12T16:46:22;27.00;99.90
33811;DHT22;20119;48.334;16.206;2023-08-12T16:48:49;26.90;99.90
33811;DHT22;20119;48.334;16.206;2023-08-12T16:51:17;26.80;99.90
33811;DHT22;20119;48.334;16.206;2023-08-12T16:53:47;26.80;99.90
33811;DHT22;20119;48.334;16.206;2023-08-12T16:56:14;26.90;99.90
33811;DHT22;20119;48.334;16.206;2023-08-12T16:58:41;26.70;99.90
33811;DHT22;20119;48.334;16.206;2023-08-12T17:01:09;26.60;99.90
33811;DHT22;20119;48.334;16.206;2023-08-12T17:03:41;26.60;99.90
33811;DHT22;20119;48.334;16.206;2023-08-12T17:06:09;26.60;99.90
33811;DHT22;20119;48.334;16.206;2023-08-12T17:16:44;26.30;99.90
33811;DHT22;20119;48.334;16.206;2023-08-12T17:21:53;26.10;99.90
33811;DHT22;20119;48.334;16.206;2023-08-12T17:39:59;25.70;99.90
33811;DHT22;20119;48.334;16.206;2023-08-12T17:42:33;25.70;99.90
33811;DHT22;20119;48.334;16.206;2023-08-12T17:50:14;25.50;99.90
33811;DHT22;20119;48.334;16.206;2023-08-12T17:58:06;25.30;99.90
33811;DHT22;20119;48.334;16.206;2023-08-12T18:00:34;25.10;99.90
33811;DHT22;20119;48.334;16.206;2023-08-12T18:03:02;24.90;99.90
33811;DHT22;20119;48.334;16.206;2023-08-12T18:05:31;24.90;99.90
33811;DHT22;20119;48.334;16.206;2023-08-12T18:10:40;24.60;99.90
33811;DHT22;20119;48.334;16.206;2023-08-12T18:18:40;24.60;99.90
33811;DHT22;20119;48.334;16.206;2023-08-12T18:23:49;24.40;99.90
33811;DHT22;20119;48.334;16.206;2023-08-12T18:28:54;24.40;99.90
33811;DHT22;20119;48.334;16.206;2023-08-12T18:31:22;24.30;99.90
33811;DHT22;20119;48.334;16.206;2023-08-12T18:34:14;24.20;99.90
33811;DHT22;20119;48.334;16.206;2023-08-12T18:36:52;24.20;99.90
33811;DHT22;20119;48.334;16.206;2023-08-12T18:39:22;24.10;99.90
33811;DHT22;20119;48.334;16.206;2023-08-12T18:41:49;23.90;99.90
33811;DHT22;20119;48.334;16.206;2023-08-12T18:44:17;23.80;99.90
33811;DHT22;20119;48.334;16.206;2023-08-12T18:46:45;23.70;99.90
33811;DHT22;20119;48.334;16.206;2023-08-12T18:49:15;23.60;99.90
33811;DHT22;20119;48.334;16.206;2023-08-12T18:51:42;23.50;99.90
33811;DHT22;20119;48.334;16.206;2023-08-12T18:54:09;23.40;99.90
33811;DHT22;20119;48.334;16.206;2023-08-12T18:59:23;23.20;99.90
33811;DHT22;20119;48.334;16.206;2023-08-12T19:57:28;22.80;99.90
33811;DHT22;20119;48.334;16.206;2023-08-12T20:00:15;22.60;99.90
33811;DHT22;20119;48.334;16.206;2023-08-12T20:19:56;21.90;99.90
33811;DHT22;20119;48.334;16.206;2023-08-12T20:28:10;21.70;99.90
33811;DHT22;20119;48.334;16.206;2023-08-12T20:33:22;21.50;99.90
33811;DHT22;20119;48.334;16.206;2023-08-12T20:38:47;21.50;99.90
33811;DHT22;20119;48.334;16.206;2023-08-12T20:41:14;21.40;99.90
33811;DHT22;20119;48.334;16.206;2023-08-12T20:46:34;21.10;99.90
33811;DHT22;20119;48.334;16.206;2023-08-12T20:49:04;21.00;99.90
33811;DHT22;20119;48.334;16.206;2023-08-12T22:56:29;18.20;99.90
33811;DHT22;20119;48.334;16.206;2023-08-12T22:58:59;18.20;99.90
33811;DHT22;20119;48.334;16.206;2023-08-12T23:24:50;17.90;99.90
